sensor_id;sensor_type;location;lat;lon;timestamp;temperature;humidity
13433;DHT22;6789;47.678;9.158;2022-08-25T00:00:32;19.00;99.90
13433;DHT22;6789;47.678;9.158;2022-08-25T00:05:48;18.90;99.90
13433;DHT22;6789;47.678;9.158;2022-08-25T00:10:40;18.70;99.90
13433;DHT22;6789;47.678;9.158;2022-08-25T00:16:02;18.70;99.90
13433;DHT22;6789;47.678;9.158;2022-08-25T00:21:23;18.70;99.90
13433;DHT22;6789;47.678;9.158;2022-08-25T00:26:44;18.50;99.90
13433;DHT22;6789;47.678;9.158;2022-08-25T00:32:19;18.40;99.90
13433;DHT22;6789;47.678;9.158;2022-08-25T00:37:33;18.30;99.90
13433;DHT22;6789;47.678;9.158;2022-08-25T00:43:02;18.10;99.90
13433;DHT22;6789;47.678;9.158;2022-08-25T00:48:21;18.00;99.90
13433;DHT22;6789;47.678;9.158;2022-08-25T00:53:32;17.90;99.90
13433;DHT22;6789;47.678;9.158;2022-08-25T00:59:27;17.90;99.90
13433;DHT22;6789;47.678;9.158;2022-08-25T01:04:44;17.80;99.90
13433;DHT22;6789;47.678;9.158;2022-08-25T01:10:00;17.80;99.90
13433;DHT22;6789;47.678;9.158;2022-08-25T01:15:13;17.60;99.90
13433;DHT22;6789;47.678;9.158;2022-08-25T01:20:32;17.60;99.90
13433;DHT22;6789;47.678;9.158;2022-08-25T01:26:02;17.50;99.90
13433;DHT22;6789;47.678;9.158;2022-08-25T01:31:20;17.40;99.90
13433;DHT22;6789;47.678;9.158;2022-08-25T01:43:51;17.40;99.90
13433;DHT22;6789;47.678;9.158;2022-08-25T01:49:12;17.40;99.90
13433;DHT22;6789;47.678;9.158;2022-08-25T01:54:19;17.40;99.90
13433;DHT22;6789;47.678;9.158;2022-08-25T01:59:26;17.30;99.90
13433;DHT22;6789;47.678;9.158;2022-08-25T02:04:36;17.30;99.90
13433;DHT22;6789;47.678;9.158;2022-08-25T02:10:00;17.30;99.90
13433;DHT22;6789;47.678;9.158;2022-08-25T02:14:54;17.10;99.90
13433;DHT22;6789;47.678;9.158;2022-08-25T02:19:46;17.00;99.90
13433;DHT22;6789;47.678;9.158;2022-08-25T02:24:38;16.90;99.90
13433;DHT22;6789;47.678;9.158;2022-08-25T02:29:29;16.90;99.90
13433;DHT22;6789;47.678;9.158;2022-08-25T02:34:38;16.80;99.90
13433;DHT22;6789;47.678;9.158;2022-08-25T02:39:31;16.80;99.90
13433;DHT22;6789;47.678;9.158;2022-08-25T02:44:23;16.70;99.90
13433;DHT22;6789;47.678;9.158;2022-08-25T02:49:15;16.70;99.90
13433;DHT22;6789;47.678;9.158;2022-08-25T02:54:07;16.60;99.90
13433;DHT22;6789;47.678;9.158;2022-08-25T02:59:00;16.60;99.90
13433;DHT22;6789;47.678;9.158;2022-08-25T03:03:52;16.50;99.90
13433;DHT22;6789;47.678;9.158;2022-08-25T03:09:07;16.30;99.90
13433;DHT22;6789;47.678;9.158;2022-08-25T03:14:00;16.30;99.90
13433;DHT22;6789;47.678;9.158;2022-08-25T03:19:01;16.30;99.90
13433;DHT22;6789;47.678;9.158;2022-08-25T03:23:56;16.30;99.90
13433;DHT22;6789;47.678;9.158;2022-08-25T03:28:49;16.20;99.90
13433;DHT22;6789;47.678;9.158;2022-08-25T03:33:41;16.20;99.90
13433;DHT22;6789;47.678;9.158;2022-08-25T03:38:33;16.20;99.90
13433;DHT22;6789;47.678;9.158;2022-08-25T03:43:28;16.20;99.90
13433;DHT22;6789;47.678;9.158;2022-08-25T03:48:20;16.20;99.90
13433;DHT22;6789;47.678;9.158;2022-08-25T03:53:12;16.30;99.90
13433;DHT22;6789;47.678;9.158;2022-08-25T03:58:18;16.10;99.90
13433;DHT22;6789;47.678;9.158;2022-08-25T04:03:10;16.10;99.90
13433;DHT22;6789;47.678;9.158;2022-08-25T04:09:01;16.10;99.90
13433;DHT22;6789;47.678;9.158;2022-08-25T04:14:35;16.10;99.90
13433;DHT22;6789;47.678;9.158;2022-08-25T04:19:51;16.10;99.90
13433;DHT22;6789;47.678;9.158;2022-08-25T04:25:11;16.00;99.90
13433;DHT22;6789;47.678;9.158;2022-08-25T04:30:43;16.00;99.90
13433;DHT22;6789;47.678;9.158;2022-08-25T04:36:21;16.00;99.90
13433;DHT22;6789;47.678;9.158;2022-08-25T04:41:59;15.90;99.90
13433;DHT22;6789;47.678;9.158;2022-08-25T04:47:25;16.00;99.90
13433;DHT22;6789;47.678;9.158;2022-08-25T04:53:08;16.00;99.90
13433;DHT22;6789;47.678;9.158;2022-08-25T04:58:47;16.50;99.90
13433;DHT22;6789;47.678;9.158;2022-08-25T05:04:20;17.40;99.90
13433;DHT22;6789;47.678;9.158;2022-08-25T05:09:38;18.40;99.90
13433;DHT22;6789;47.678;9.158;2022-08-25T05:14:54;19.20;99.90
13433;DHT22;6789;47.678;9.158;2022-08-25T05:20:02;20.20;99.90
13433;DHT22;6789;47.678;9.158;2022-08-25T05:25:09;21.00;99.90
13433;DHT22;6789;47.678;9.158;2022-08-25T05:30:16;21.80;99.90
13433;DHT22;6789;47.678;9.158;2022-08-25T05:35:22;22.70;99.90
13433;DHT22;6789;47.678;9.158;2022-08-25T05:40:36;23.20;99.90
13433;DHT22;6789;47.678;9.158;2022-08-25T05:45:44;23.60;99.90
13433;DHT22;6789;47.678;9.158;2022-08-25T05:50:55;24.20;99.90
13433;DHT22;6789;47.678;9.158;2022-08-25T05:56:04;25.00;99.90
13433;DHT22;6789;47.678;9.158;2022-08-25T06:01:20;25.40;99.90
13433;DHT22;6789;47.678;9.158;2022-08-25T06:06:47;25.60;99.90
13433;DHT22;6789;47.678;9.158;2022-08-25T06:12:00;26.60;99.90
13433;DHT22;6789;47.678;9.158;2022-08-25T06:17:06;26.70;99.90
13433;DHT22;6789;47.678;9.158;2022-08-25T06:22:12;26.70;99.90
13433;DHT22;6789;47.678;9.158;2022-08-25T06:27:19;27.00;99.90
13433;DHT22;6789;47.678;9.158;2022-08-25T06:32:25;26.60;99.90
13433;DHT22;6789;47.678;9.158;2022-08-25T06:37:38;26.20;99.90
13433;DHT22;6789;47.678;9.158;2022-08-25T06:42:49;25.40;99.90
13433;DHT22;6789;47.678;9.158;2022-08-25T06:47:56;25.10;99.90
13433;DHT22;6789;47.678;9.158;2022-08-25T06:53:03;24.70;99.90
13433;DHT22;6789;47.678;9.158;2022-08-25T06:58:11;24.20;99.90
13433;DHT22;6789;47.678;9.158;2022-08-25T07:03:29;24.10;99.90
13433;DHT22;6789;47.678;9.158;2022-08-25T07:08:38;23.80;99.90
13433;DHT22;6789;47.678;9.158;2022-08-25T07:13:56;23.50;99.90
13433;DHT22;6789;47.678;9.158;2022-08-25T07:19:11;23.10;99.90
13433;DHT22;6789;47.678;9.158;2022-08-25T07:24:49;23.00;99.90
13433;DHT22;6789;47.678;9.158;2022-08-25T07:30:27;23.30;99.90
13433;DHT22;6789;47.678;9.158;2022-08-25T07:35:54;23.30;99.90
13433;DHT22;6789;47.678;9.158;2022-08-25T07:41:22;23.40;99.90
13433;DHT22;6789;47.678;9.158;2022-08-25T07:46:39;23.60;99.90
13433;DHT22;6789;47.678;9.158;2022-08-25T07:51:53;23.70;99.90
13433;DHT22;6789;47.678;9.158;2022-08-25T07:57:30;23.30;99.90
13433;DHT22;6789;47.678;9.158;2022-08-25T08:02:46;23.00;99.90
13433;DHT22;6789;47.678;9.158;2022-08-25T08:07:47;22.80;99.90
13433;DHT22;6789;47.678;9.158;2022-08-25T08:12:57;22.60;99.90
13433;DHT22;6789;47.678;9.158;2022-08-25T08:18:15;22.70;99.90
13433;DHT22;6789;47.678;9.158;2022-08-25T08:23:27;22.80;99.90
13433;DHT22;6789;47.678;9.158;2022-08-25T08:29:06;23.00;99.90
13433;DHT22;6789;47.678;9.158;2022-08-25T08:34:42;23.30;99.90
13433;DHT22;6789;47.678;9.158;2022-08-25T08:40:21;23.50;99.90
13433;DHT22;6789;47.678;9.158;2022-08-25T08:45:28;23.70;99.90
13433;DHT22;6789;47.678;9.158;2022-08-25T08:56:41;23.80;99.90
13433;DHT22;6789;47.678;9.158;2022-08-25T09:01:59;24.20;99.90
13433;DHT22;6789;47.678;9.158;2022-08-25T09:08:08;24.60;99.90
13433;DHT22;6789;47.678;9.158;2022-08-25T09:25:32;24.40;99.90
13433;DHT22;6789;47.678;9.158;2022-08-25T09:31:22;24.60;99.90
13433;DHT22;6789;47.678;9.158;2022-08-25T09:36:56;24.50;99.90
13433;DHT22;6789;47.678;9.158;2022-08-25T09:42:05;24.50;99.90
13433;DHT22;6789;47.678;9.158;2022-08-25T09:47:26;24.70;99.90
13433;DHT22;6789;47.678;9.158;2022-08-25T09:53:16;24.40;99.90
13433;DHT22;6789;47.678;9.158;2022-08-25T09:59:20;24.70;99.90
13433;DHT22;6789;47.678;9.158;2022-08-25T10:05:24;25.10;99.90
13433;DHT22;6789;47.678;9.158;2022-08-25T10:16:33;25.70;99.90
13433;DHT22;6789;47.678;9.158;2022-08-25T10:22:09;25.90;99.90
13433;DHT22;6789;47.678;9.158;2022-08-25T10:27:41;26.20;99.90
13433;DHT22;6789;47.678;9.158;2022-08-25T10:38:39;25.90;99.90
13433;DHT22;6789;47.678;9.158;2022-08-25T11:07:45;26.40;99.90
13433;DHT22;6789;47.678;9.158;2022-08-25T11:13:25;26.30;99.90
13433;DHT22;6789;47.678;9.158;2022-08-25T11:19:24;26.60;99.90
13433;DHT22;6789;47.678;9.158;2022-08-25T11:25:25;26.10;99.90
13433;DHT22;6789;47.678;9.158;2022-08-25T11:30:41;25.90;99.90
13433;DHT22;6789;47.678;9.158;2022-08-25T11:53:24;25.70;99.90
13433;DHT22;6789;47.678;9.158;2022-08-25T11:58:50;25.80;99.90
13433;DHT22;6789;47.678;9.158;2022-08-25T12:04:32;26.10;99.90
13433;DHT22;6789;47.678;9.158;2022-08-25T12:10:53;26.10;99.90
13433;DHT22;6789;47.678;9.158;2022-08-25T12:27:31;26.60;99.90
13433;DHT22;6789;47.678;9.158;2022-08-25T12:33:09;26.60;99.90
13433;DHT22;6789;47.678;9.158;2022-08-25T12:38:30;26.70;99.90
13433;DHT22;6789;47.678;9.158;2022-08-25T12:49:53;26.80;99.90
13433;DHT22;6789;47.678;9.158;2022-08-25T13:02:51;27.10;99.90
13433;DHT22;6789;47.678;9.158;2022-08-25T13:14:51;27.30;99.90
13433;DHT22;6789;47.678;9.158;2022-08-25T13:26:08;27.10;99.90
13433;DHT22;6789;47.678;9.158;2022-08-25T13:32:03;27.10;99.90
13433;DHT22;6789;47.678;9.158;2022-08-25T13:37:22;27.20;99.90
13433;DHT22;6789;47.678;9.158;2022-08-25T13:48:30;27.30;99.90
13433;DHT22;6789;47.678;9.158;2022-08-25T13:54:35;27.20;99.90
13433;DHT22;6789;47.678;9.158;2022-08-25T13:59:49;27.30;99.90
13433;DHT22;6789;47.678;9.158;2022-08-25T14:05:37;27.30;99.90
13433;DHT22;6789;47.678;9.158;2022-08-25T14:11:27;27.40;99.90
13433;DHT22;6789;47.678;9.158;2022-08-25T14:16:51;27.50;99.90
13433;DHT22;6789;47.678;9.158;2022-08-25T14:22:56;27.40;99.90
13433;DHT22;6789;47.678;9.158;2022-08-25T14:28:37;27.50;99.90
13433;DHT22;6789;47.678;9.158;2022-08-25T14:33:52;27.40;99.90
13433;DHT22;6789;47.678;9.158;2022-08-25T14:39:21;27.60;99.90
13433;DHT22;6789;47.678;9.158;2022-08-25T14:44:29;27.70;99.90
13433;DHT22;6789;47.678;9.158;2022-08-25T14:49:40;27.90;99.90
13433;DHT22;6789;47.678;9.158;2022-08-25T14:54:49;28.00;99.90
13433;DHT22;6789;47.678;9.158;2022-08-25T15:00:24;28.10;99.90
13433;DHT22;6789;47.678;9.158;2022-08-25T15:05:31;28.20;99.90
13433;DHT22;6789;47.678;9.158;2022-08-25T15:10:36;28.00;99.90
13433;DHT22;6789;47.678;9.158;2022-08-25T15:22:09;28.20;99.90
13433;DHT22;6789;47.678;9.158;2022-08-25T15:28:06;28.10;99.90
13433;DHT22;6789;47.678;9.158;2022-08-25T15:33:17;28.10;99.90
13433;DHT22;6789;47.678;9.158;2022-08-25T15:38:29;28.20;99.90
13433;DHT22;6789;47.678;9.158;2022-08-25T15:43:38;28.20;99.90
13433;DHT22;6789;47.678;9.158;2022-08-25T15:48:48;28.20;99.90
13433;DHT22;6789;47.678;9.158;2022-08-25T15:54:05;28.10;99.90
13433;DHT22;6789;47.678;9.158;2022-08-25T15:59:22;28.10;99.90
13433;DHT22;6789;47.678;9.158;2022-08-25T16:04:29;28.00;99.90
13433;DHT22;6789;47.678;9.158;2022-08-25T16:10:08;28.00;99.90
13433;DHT22;6789;47.678;9.158;2022-08-25T16:15:46;27.90;99.90
13433;DHT22;6789;47.678;9.158;2022-08-25T16:21:25;27.90;99.90
13433;DHT22;6789;47.678;9.158;2022-08-25T16:26:43;28.00;99.90
13433;DHT22;6789;47.678;9.158;2022-08-25T16:31:52;27.90;99.90
13433;DHT22;6789;47.678;9.158;2022-08-25T16:37:18;27.80;99.90
13433;DHT22;6789;47.678;9.158;2022-08-25T16:42:38;27.60;99.90
13433;DHT22;6789;47.678;9.158;2022-08-25T16:47:50;27.60;99.90
13433;DHT22;6789;47.678;9.158;2022-08-25T16:53:08;27.60;99.90
13433;DHT22;6789;47.678;9.158;2022-08-25T16:58:43;27.70;99.90
13433;DHT22;6789;47.678;9.158;2022-08-25T17:03:54;27.80;99.90
13433;DHT22;6789;47.678;9.158;2022-08-25T17:09:04;27.60;99.90
13433;DHT22;6789;47.678;9.158;2022-08-25T17:14:18;27.50;99.90
13433;DHT22;6789;47.678;9.158;2022-08-25T17:26:16;27.20;99.90
13433;DHT22;6789;47.678;9.158;2022-08-25T17:31:22;26.70;99.90
13433;DHT22;6789;47.678;9.158;2022-08-25T17:36:28;26.70;99.90
13433;DHT22;6789;47.678;9.158;2022-08-25T17:41:39;26.50;99.90
13433;DHT22;6789;47.678;9.158;2022-08-25T17:46:55;26.40;99.90
13433;DHT22;6789;47.678;9.158;2022-08-25T17:52:06;26.30;99.90
13433;DHT22;6789;47.678;9.158;2022-08-25T17:57:25;26.10;99.90
13433;DHT22;6789;47.678;9.158;2022-08-25T18:02:31;25.80;99.90
13433;DHT22;6789;47.678;9.158;2022-08-25T18:07:38;25.50;99.90
13433;DHT22;6789;47.678;9.158;2022-08-25T18:12:45;25.20;99.90
13433;DHT22;6789;47.678;9.158;2022-08-25T18:17:57;25.00;99.90
13433;DHT22;6789;47.678;9.158;2022-08-25T18:23:11;24.80;99.90
13433;DHT22;6789;47.678;9.158;2022-08-25T18:28:18;24.50;99.90
13433;DHT22;6789;47.678;9.158;2022-08-25T18:33:24;24.30;99.90
13433;DHT22;6789;47.678;9.158;2022-08-25T18:38:30;23.90;99.90
13433;DHT22;6789;47.678;9.158;2022-08-25T18:43:55;23.70;99.90
13433;DHT22;6789;47.678;9.158;2022-08-25T18:49:06;23.50;99.90
13433;DHT22;6789;47.678;9.158;2022-08-25T18:54:50;23.50;99.90
13433;DHT22;6789;47.678;9.158;2022-08-25T19:00:01;23.40;99.90
13433;DHT22;6789;47.678;9.158;2022-08-25T19:05:24;23.20;99.90
13433;DHT22;6789;47.678;9.158;2022-08-25T19:10:34;23.10;99.90
13433;DHT22;6789;47.678;9.158;2022-08-25T19:15:53;23.00;99.90
13433;DHT22;6789;47.678;9.158;2022-08-25T19:21:04;22.90;99.90
13433;DHT22;6789;47.678;9.158;2022-08-25T19:26:10;22.80;99.90
13433;DHT22;6789;47.678;9.158;2022-08-25T19:31:21;22.70;99.90
13433;DHT22;6789;47.678;9.158;2022-08-25T19:36:39;22.70;99.90
13433;DHT22;6789;47.678;9.158;2022-08-25T19:41:42;22.50;99.90
13433;DHT22;6789;47.678;9.158;2022-08-25T19:46:50;22.50;99.90
13433;DHT22;6789;47.678;9.158;2022-08-25T19:51:56;22.40;99.90
13433;DHT22;6789;47.678;9.158;2022-08-25T19:57:06;22.20;99.90
13433;DHT22;6789;47.678;9.158;2022-08-25T20:02:25;22.10;99.90
13433;DHT22;6789;47.678;9.158;2022-08-25T20:07:34;22.00;99.90
13433;DHT22;6789;47.678;9.158;2022-08-25T20:12:44;21.80;99.90
13433;DHT22;6789;47.678;9.158;2022-08-25T20:17:53;21.70;99.90
13433;DHT22;6789;47.678;9.158;2022-08-25T20:23:17;21.70;99.90
13433;DHT22;6789;47.678;9.158;2022-08-25T20:29:14;21.50;99.90
13433;DHT22;6789;47.678;9.158;2022-08-25T20:34:52;21.40;99.90
13433;DHT22;6789;47.678;9.158;2022-08-25T20:40:06;21.30;99.90
13433;DHT22;6789;47.678;9.158;2022-08-25T20:45:17;21.20;99.90
13433;DHT22;6789;47.678;9.158;2022-08-25T20:50:49;21.10;99.90
13433;DHT22;6789;47.678;9.158;2022-08-25T20:56:09;21.00;99.90
13433;DHT22;6789;47.678;9.158;2022-08-25T21:01:26;21.00;99.90
13433;DHT22;6789;47.678;9.158;2022-08-25T21:06:44;20.90;99.90
13433;DHT22;6789;47.678;9.158;2022-08-25T21:12:03;20.70;99.90
13433;DHT22;6789;47.678;9.158;2022-08-25T21:17:37;20.60;99.90
13433;DHT22;6789;47.678;9.158;2022-08-25T21:35:02;20.30;99.90
13433;DHT22;6789;47.678;9.158;2022-08-25T21:40:35;20.20;99.90
13433;DHT22;6789;47.678;9.158;2022-08-25T21:45:45;20.10;99.90
13433;DHT22;6789;47.678;9.158;2022-08-25T21:51:05;20.10;99.90
13433;DHT22;6789;47.678;9.158;2022-08-25T21:56:19;20.00;99.90
13433;DHT22;6789;47.678;9.158;2022-08-25T22:01:26;19.90;99.90
13433;DHT22;6789;47.678;9.158;2022-08-25T22:06:34;19.80;99.90
13433;DHT22;6789;47.678;9.158;2022-08-25T22:11:48;19.70;99.90
13433;DHT22;6789;47.678;9.158;2022-08-25T22:16:57;19.70;99.90
13433;DHT22;6789;47.678;9.158;2022-08-25T22:27:12;19.70;99.90
13433;DHT22;6789;47.678;9.158;2022-08-25T22:32:19;19.70;99.90
13433;DHT22;6789;47.678;9.158;2022-08-25T22:37:25;19.70;99.90
13433;DHT22;6789;47.678;9.158;2022-08-25T22:42:31;19.60;99.90
13433;DHT22;6789;47.678;9.158;2022-08-25T22:47:42;19.60;99.90
13433;DHT22;6789;47.678;9.158;2022-08-25T22:52:59;19.50;99.90
13433;DHT22;6789;47.678;9.158;2022-08-25T22:58:05;19.50;99.90
13433;DHT22;6789;47.678;9.158;2022-08-25T23:03:13;19.40;99.90
13433;DHT22;6789;47.678;9.158;2022-08-25T23:08:24;19.20;99.90
13433;DHT22;6789;47.678;9.158;2022-08-25T23:13:35;19.20;99.90
13433;DHT22;6789;47.678;9.158;2022-08-25T23:18:53;19.30;99.90
13433;DHT22;6789;47.678;9.158;2022-08-25T23:30:17;19.20;99.90
13433;DHT22;6789;47.678;9.158;2022-08-25T23:35:12;19.20;99.90
13433;DHT22;6789;47.678;9.158;2022-08-25T23:40:28;19.00;99.90
13433;DHT22;6789;47.678;9.158;2022-08-25T23:45:21;18.90;99.90
13433;DHT22;6789;47.678;9.158;2022-08-25T23:50:14;18.70;99.90
13433;DHT22;6789;47.678;9.158;2022-08-25T23:55:07;18.60;99.90
